Time;durP1;ratioP1;P1;durP2;ratioP2;P2;SDS_P1;SDS_P2;PMS_P1;PMS_P2;Temp;Humidity;BMP_temperature;BMP_pressure;BME280_temperature;BME280_humidity;BME280_pressure;Samples;Min_cycle;Max_cycle;Signal;HPM_P1;HPM_P2
2022/01/21 00:01:25;;;;;;;8.93;1.58;;;;;;;-147.05;100.00;58721.66;5063049;28;20052;-71
2022/01/21 00:03:53;;;;;;;18.30;2.38;;;;;;;-147.05;100.00;58721.66;5062777;28;20484;-70
2022/01/21 00:06:20;;;;;;;11.02;1.60;;;;;;;-147.05;100.00;58721.66;5066700;28;20091;-70
2022/01/21 00:08:51;;;;;;;13.48;2.10;;;;;;;-147.05;100.00;58721.66;5065951;28;20044;-70
2022/01/21 00:11:19;;;;;;;12.55;2.30;;;;;;;-147.05;100.00;58721.66;5068478;28;20057;-70
2022/01/21 00:13:46;;;;;;;13.45;2.50;;;;;;;-147.05;100.00;58721.66;5069900;28;20030;-70
2022/01/21 00:16:17;;;;;;;13.20;1.80;;;;;;;-147.05;100.00;58721.66;5063122;28;20045;-69
2022/01/21 00:18:54;;;;;;;12.75;2.00;;;;;;;-147.05;100.00;58721.66;5071093;28;20037;-69
2022/01/21 00:32:26;;;;;;;16.92;2.03;;;;;;;-147.05;100.00;58721.66;5062676;28;20767;-69
2022/01/21 00:34:53;;;;;;;16.38;2.35;;;;;;;-147.05;100.00;58721.66;5063154;28;20096;-69
2022/01/21 00:37:20;;;;;;;11.32;1.90;;;;;;;-147.05;100.00;58721.66;5066115;28;20033;-69
2022/01/21 00:39:52;;;;;;;12.43;1.70;;;;;;;-147.05;100.00;58721.66;5068594;28;20120;-69
2022/01/21 00:44:52;;;;;;;13.18;1.70;;;;;;;-147.05;100.00;58721.66;5067846;28;20088;-71
2022/01/21 00:47:20;;;;;;;12.00;1.90;;;;;;;-147.05;100.00;58721.66;5088246;28;20037;-70
2022/01/21 00:49:47;;;;;;;13.80;1.95;;;;;;;-147.05;100.00;58721.66;5066740;28;21086;-69
2022/01/21 00:52:14;;;;;;;16.75;2.72;;;;;;;-147.05;100.00;58721.66;5058822;28;20069;-69
2022/01/21 00:54:41;;;;;;;13.45;2.22;;;;;;;-147.05;100.00;58721.66;5056732;28;20862;-68
2022/01/21 00:57:09;;;;;;;12.05;1.95;;;;;;;-147.05;100.00;58721.66;5069269;28;20168;-70
2022/01/21 00:59:36;;;;;;;13.10;2.55;;;;;;;-147.05;100.00;58721.66;5062428;28;20040;-71
2022/01/21 01:02:04;;;;;;;9.45;1.60;;;;;;;-147.05;100.00;58721.66;5066283;28;20049;-71
2022/01/21 01:04:32;;;;;;;10.18;1.80;;;;;;;-147.05;100.00;58721.66;5066332;28;20037;-71
2022/01/21 01:07:01;;;;;;;12.80;1.88;;;;;;;-147.05;100.00;58721.66;5064280;28;20044;-71
2022/01/21 01:09:28;;;;;;;15.70;1.92;;;;;;;-147.05;100.00;58721.66;5089044;28;20045;-71
2022/01/21 01:20:07;;;;;;;13.18;2.00;;;;;;;-147.05;100.00;58721.66;5062799;28;20042;-69
2022/01/21 01:23:01;;;;;;;12.18;2.05;;;;;;;-147.05;100.00;58721.66;5066651;28;20044;-69
2022/01/21 01:28:14;;;;;;;14.15;2.20;;;;;;;-147.05;100.00;58721.66;5066825;28;20050;-71
2022/01/21 01:30:41;;;;;;;14.27;2.05;;;;;;;-147.05;100.00;58721.66;5063604;28;20037;-69
2022/01/21 01:33:10;;;;;;;12.93;2.42;;;;;;;-147.05;100.00;58721.66;5063559;28;20037;-70
2022/01/21 01:35:39;;;;;;;10.73;2.25;;;;;;;-147.05;100.00;58721.66;5069246;28;20041;-69
2022/01/21 01:41:05;;;;;;;12.68;2.55;;;;;;;-147.05;100.00;58721.66;5061911;28;20034;-70
2022/01/21 01:51:50;;;;;;;13.85;2.38;;;;;;;-147.05;100.00;58721.66;5056806;28;20295;-69
2022/01/21 01:54:18;;;;;;;9.93;2.10;;;;;;;-147.05;100.00;58721.66;5063063;28;20566;-70
2022/01/21 01:56:52;;;;;;;22.48;2.75;;;;;;;-147.05;100.00;58721.66;5060724;28;20056;-70
2022/01/21 01:59:20;;;;;;;9.57;2.28;;;;;;;-147.05;100.00;58721.66;5065438;28;20204;-70
2022/01/21 02:01:52;;;;;;;15.70;2.20;;;;;;;-147.05;100.00;58721.66;5062910;28;20040;-70
2022/01/21 02:04:23;;;;;;;14.10;2.70;;;;;;;-147.05;100.00;58721.66;5060091;28;20155;-70
2022/01/21 02:06:50;;;;;;;11.93;2.50;;;;;;;-147.05;100.00;58721.66;5052945;28;20045;-70
2022/01/21 02:09:18;;;;;;;14.50;2.20;;;;;;;-147.05;100.00;58721.66;5062032;28;20041;-69
2022/01/21 02:11:46;;;;;;;15.65;3.10;;;;;;;-147.05;100.00;58721.66;5063692;28;20053;-70
2022/01/21 02:14:20;;;;;;;13.20;2.72;;;;;;;-147.05;100.00;58721.66;5073273;28;20045;-70
2022/01/21 02:22:16;;;;;;;15.57;3.15;;;;;;;-147.05;100.00;58721.66;5058546;28;20046;-70
2022/01/21 02:24:52;;;;;;;11.57;2.60;;;;;;;-147.05;100.00;58721.66;5058968;28;20072;-69
2022/01/21 02:27:20;;;;;;;7.78;2.60;;;;;;;-147.05;100.00;58721.66;5057878;28;20046;-69
2022/01/21 02:29:50;;;;;;;22.33;3.50;;;;;;;-147.05;100.00;58721.66;5058829;28;20096;-69
2022/01/21 02:32:20;;;;;;;12.98;2.53;;;;;;;-147.05;100.00;58721.66;5069492;28;20529;-70
2022/01/21 02:34:48;;;;;;;14.20;3.58;;;;;;;-147.05;100.00;58721.66;5058835;28;20485;-70
2022/01/21 02:37:18;;;;;;;10.68;2.92;;;;;;;-147.05;100.00;58721.66;5061183;28;20088;-69
2022/01/21 02:39:46;;;;;;;14.25;2.92;;;;;;;-147.05;100.00;58721.66;5061603;28;20095;-69
2022/01/21 02:42:14;;;;;;;10.98;2.72;;;;;;;-147.05;100.00;58721.66;5062809;28;20128;-69
2022/01/21 02:44:41;;;;;;;14.07;3.25;;;;;;;-147.05;100.00;58721.66;5065635;28;20128;-67
2022/01/21 02:47:09;;;;;;;9.55;2.92;;;;;;;-147.05;100.00;58721.66;5088279;28;20045;-68
2022/01/21 02:49:43;;;;;;;14.25;2.92;;;;;;;-147.05;100.00;58721.66;5088747;28;20125;-67
2022/01/21 02:52:11;;;;;;;17.98;3.05;;;;;;;-147.05;100.00;58721.66;5091478;28;20108;-67
2022/01/21 02:54:38;;;;;;;15.07;2.80;;;;;;;-147.05;100.00;58721.66;5064090;28;20131;-68
2022/01/21 02:57:06;;;;;;;11.88;2.92;;;;;;;-147.05;100.00;58721.66;5057790;28;20045;-69
2022/01/21 02:59:34;;;;;;;14.13;3.10;;;;;;;-147.05;100.00;58721.66;5067299;28;20071;-68
2022/01/21 03:02:03;;;;;;;17.15;3.42;;;;;;;-147.05;100.00;58721.66;5062113;28;20033;-69
2022/01/21 03:04:52;;;;;;;13.55;2.72;;;;;;;-147.05;100.00;58721.66;5059940;28;20033;-68
2022/01/21 03:07:18;;;;;;;14.95;3.08;;;;;;;-147.05;100.00;58721.66;5063213;28;20777;-68
2022/01/21 03:09:45;;;;;;;13.50;2.80;;;;;;;-147.05;100.00;58721.66;5059847;28;20121;-68
2022/01/21 03:12:12;;;;;;;9.55;2.97;;;;;;;-147.05;100.00;58721.66;5066890;28;20509;-68
2022/01/21 03:14:39;;;;;;;13.73;2.30;;;;;;;-147.05;100.00;58721.66;5073803;28;20065;-68
2022/01/21 03:17:07;;;;;;;12.75;2.45;;;;;;;-147.05;100.00;58721.66;5060267;28;20079;-68
2022/01/21 03:19:34;;;;;;;12.43;2.53;;;;;;;-147.05;100.00;58721.66;5060350;28;20147;-69
2022/01/21 03:22:02;;;;;;;8.82;2.45;;;;;;;-147.05;100.00;58721.66;5062362;28;21040;-67
2022/01/21 03:24:29;;;;;;;12.10;3.13;;;;;;;-147.05;100.00;58721.66;5063618;28;20108;-68
2022/01/21 03:26:56;;;;;;;13.35;2.97;;;;;;;-147.05;100.00;58721.66;5058924;28;20112;-68
2022/01/21 03:29:23;;;;;;;14.10;2.80;;;;;;;-147.05;100.00;58721.66;5061223;28;20049;-67
2022/01/21 03:31:50;;;;;;;11.48;2.20;;;;;;;-147.05;100.00;58721.66;5062213;28;20488;-67
2022/01/21 03:34:20;;;;;;;17.08;3.42;;;;;;;-147.05;100.00;58721.66;5061516;28;20042;-68
2022/01/21 03:36:47;;;;;;;13.93;2.40;;;;;;;-147.05;100.00;58721.66;5066171;28;20045;-70
2022/01/21 03:39:14;;;;;;;15.77;2.63;;;;;;;-147.05;100.00;58721.66;5066154;28;20041;-68
2022/01/21 03:41:41;;;;;;;13.25;2.60;;;;;;;-147.05;100.00;58721.66;5068752;28;21826;-68
2022/01/21 03:44:10;;;;;;;12.57;2.40;;;;;;;-147.05;100.00;58721.66;5079384;28;20143;-69
2022/01/21 03:46:37;;;;;;;12.27;2.58;;;;;;;-147.05;100.00;58721.66;5062643;28;20048;-68
2022/01/21 03:49:07;;;;;;;15.40;2.78;;;;;;;-147.05;100.00;58721.66;5086307;28;20400;-71
2022/01/21 03:51:35;;;;;;;12.50;2.47;;;;;;;-147.05;100.00;58721.66;5065128;28;20520;-69
2022/01/21 03:54:02;;;;;;;21.08;2.80;;;;;;;-147.05;100.00;58721.66;5068214;28;20033;-68
2022/01/21 03:56:31;;;;;;;11.23;2.83;;;;;;;-147.05;100.00;58721.66;5063438;28;20049;-68
2022/01/21 03:58:59;;;;;;;12.35;2.55;;;;;;;-147.05;100.00;58721.66;5095253;28;20044;-67
2022/01/21 04:01:28;;;;;;;11.80;2.85;;;;;;;-147.05;100.00;58721.66;5057333;28;20038;-68
2022/01/21 04:03:55;;;;;;;13.13;2.20;;;;;;;-147.05;100.00;58721.66;5063643;28;20055;-69
2022/01/21 04:06:22;;;;;;;10.65;2.42;;;;;;;-147.05;100.00;58721.66;5079571;28;20549;-69
2022/01/21 04:08:49;;;;;;;14.02;2.22;;;;;;;-147.05;100.00;58721.66;5061659;28;20124;-68
2022/01/21 04:11:17;;;;;;;15.18;2.65;;;;;;;-147.05;100.00;58721.66;5062606;28;20631;-70
2022/01/21 04:13:46;;;;;;;12.25;2.40;;;;;;;-147.05;100.00;58721.66;5070437;28;20103;-71
2022/01/21 04:16:17;;;;;;;16.00;3.13;;;;;;;-147.05;100.00;58721.66;5061811;28;20108;-71
2022/01/21 04:18:45;;;;;;;16.88;2.85;;;;;;;-147.05;100.00;58721.66;5054655;28;20038;-68
2022/01/21 04:21:13;;;;;;;16.55;3.13;;;;;;;-147.05;100.00;58721.66;5057279;28;20573;-69
2022/01/21 04:23:40;;;;;;;11.45;2.95;;;;;;;-147.05;100.00;58721.66;5057926;28;20077;-70
2022/01/21 04:26:11;;;;;;;15.13;2.92;;;;;;;-147.05;100.00;58721.66;5059926;28;20743;-70
2022/01/21 04:28:38;;;;;;;14.05;3.22;;;;;;;-147.05;100.00;58721.66;5073992;28;20504;-69
2022/01/21 04:31:06;;;;;;;9.55;2.55;;;;;;;-147.05;100.00;58721.66;5059434;28;20577;-69
2022/01/21 04:33:40;;;;;;;23.92;3.42;;;;;;;-147.05;100.00;58721.66;5096339;28;20077;-69
2022/01/21 04:36:08;;;;;;;13.52;3.10;;;;;;;-147.05;100.00;58721.66;5063098;28;20041;-69
2022/01/21 04:38:38;;;;;;;13.70;2.85;;;;;;;-147.05;100.00;58721.66;5061770;28;20041;-69
2022/01/21 04:49:05;;;;;;;9.60;2.45;;;;;;;-147.05;100.00;58721.66;5064741;28;20042;-68
2022/01/21 04:51:39;;;;;;;16.52;3.05;;;;;;;-147.05;100.00;58721.66;5056205;28;20076;-69
2022/01/21 04:54:08;;;;;;;11.27;2.70;;;;;;;-147.05;100.00;58721.66;5061989;28;20044;-69
2022/01/21 04:56:38;;;;;;;16.10;2.40;;;;;;;-147.05;100.00;58721.66;5057096;28;20487;-69
2022/01/21 04:59:05;;;;;;;14.30;2.53;;;;;;;-147.05;100.00;58721.66;5062600;28;20068;-70
2022/01/21 05:01:34;;;;;;;14.10;2.38;;;;;;;-147.05;100.00;58721.66;5061201;28;20530;-70
2022/01/21 05:04:02;;;;;;;10.93;2.65;;;;;;;-147.05;100.00;58721.66;5061666;28;20041;-68
2022/01/21 05:06:29;;;;;;;14.80;2.55;;;;;;;-147.05;100.00;58721.66;5065768;28;20553;-68
2022/01/21 05:08:56;;;;;;;11.82;2.35;;;;;;;-147.05;100.00;58721.66;5062019;28;20128;-69
2022/01/21 05:11:25;;;;;;;12.68;2.90;;;;;;;-147.05;100.00;58721.66;5085922;28;20042;-70
2022/01/21 05:14:00;;;;;;;10.90;2.63;;;;;;;-147.05;100.00;58721.66;5069600;28;20076;-70
2022/01/21 05:16:35;;;;;;;9.40;2.22;;;;;;;-147.05;100.00;58721.66;5063466;28;20033;-69
2022/01/21 05:19:12;;;;;;;15.68;2.47;;;;;;;-147.05;100.00;58721.66;5086704;28;20051;-70
2022/01/21 05:22:07;;;;;;;14.00;3.17;;;;;;;-147.05;100.00;58721.66;5046573;28;20045;-69
2022/01/21 05:24:39;;;;;;;15.38;2.45;;;;;;;-147.05;100.00;58721.66;5060533;28;20094;-70
2022/01/21 05:27:07;;;;;;;9.43;2.63;;;;;;;-147.05;100.00;58721.66;5064769;28;20041;-70
2022/01/21 05:29:42;;;;;;;7.85;2.38;;;;;;;-147.05;100.00;58721.66;5064537;28;21018;-69
2022/01/21 05:32:30;;;;;;;10.95;2.47;;;;;;;-147.05;100.00;58721.66;5054637;28;20057;-68
2022/01/21 05:34:56;;;;;;;12.75;2.42;;;;;;;-147.05;100.00;58721.66;5061056;28;20033;-64
2022/01/21 05:37:39;;;;;;;12.43;2.55;;;;;;;-147.05;100.00;58721.66;5059180;28;20503;-66
2022/01/21 05:40:15;;;;;;;8.43;1.98;;;;;;;-147.05;100.00;58721.66;5063813;28;20098;-65
2022/01/21 05:42:53;;;;;;;10.85;2.42;;;;;;;-147.05;100.00;58721.66;5063479;28;20192;-68
2022/01/21 05:48:35;;;;;;;12.75;2.30;;;;;;;-147.05;100.00;58721.66;5087383;28;20033;-67
2022/01/21 05:51:21;;;;;;;12.32;2.42;;;;;;;-147.05;100.00;58721.66;5065160;28;20045;-65
2022/01/21 05:54:08;;;;;;;9.20;2.40;;;;;;;-147.05;100.00;58721.66;5060487;28;20050;-67
2022/01/21 05:58:04;;;;;;;11.57;2.40;;;;;;;-0.01;85.35;103310.63;5077065;27;20475;-67
2022/01/21 06:00:36;;;;;;;9.32;2.45;;;;;;;-0.08;85.73;103317.19;5063555;28;20084;-67
2022/01/21 06:03:06;;;;;;;9.48;2.42;;;;;;;-0.11;85.84;103314.41;5055517;28;20037;-68
2022/01/21 06:05:33;;;;;;;15.13;3.10;;;;;;;-0.10;86.00;103316.19;5059048;28;20046;-70
2022/01/21 06:08:05;;;;;;;8.90;2.05;;;;;;;-0.12;86.05;103312.63;5042949;28;20064;-67
2022/01/21 06:10:33;;;;;;;11.60;2.70;;;;;;;-0.16;86.01;103319.34;5040417;28;20584;-66
2022/01/21 06:13:00;;;;;;;9.32;2.65;;;;;;;-0.17;86.40;103314.09;5041457;28;20049;-65
2022/01/21 06:15:28;;;;;;;14.65;3.17;;;;;;;-0.16;86.38;103324.53;5040394;28;20048;-67
2022/01/21 06:17:55;;;;;;;9.38;2.97;;;;;;;-0.18;86.20;103323.56;5026277;28;20042;-70
2022/01/21 06:20:23;;;;;;;13.60;3.67;;;;;;;-0.15;86.62;103320.22;5039407;28;21027;-67
2022/01/21 06:22:50;;;;;;;13.43;3.30;;;;;;;-0.16;86.45;103318.47;5031877;28;20042;-68
2022/01/21 06:25:18;;;;;;;13.23;3.97;;;;;;;-0.18;86.19;103328.75;5035198;28;20113;-68
2022/01/21 06:27:46;;;;;;;15.80;3.22;;;;;;;-0.20;86.31;103332.06;5045245;28;20588;-70
2022/01/21 06:30:14;;;;;;;15.65;2.92;;;;;;;-0.20;86.43;103332.94;5030536;28;20042;-72
2022/01/21 06:32:42;;;;;;;11.75;3.20;;;;;;;-0.21;86.25;103330.28;5035580;28;20524;-67
2022/01/21 06:35:11;;;;;;;13.30;3.30;;;;;;;-0.24;86.32;103333.63;5043578;28;20041;-68
2022/01/21 06:37:39;;;;;;;10.93;3.13;;;;;;;-0.21;86.57;103343.25;5043312;28;20493;-70
2022/01/21 06:40:09;;;;;;;12.70;3.13;;;;;;;-0.19;86.64;103345.13;5046434;28;20096;-71
2022/01/21 06:42:37;;;;;;;11.45;3.10;;;;;;;-0.22;86.62;103347.56;5057915;28;20753;-69
2022/01/21 06:45:05;;;;;;;11.05;2.92;;;;;;;-0.22;86.72;103357.03;5042068;28;20463;-70
2022/01/21 06:47:32;;;;;;;9.70;2.20;;;;;;;-0.24;86.68;103364.72;5037619;28;20042;-73
2022/01/21 06:50:00;;;;;;;10.00;2.78;;;;;;;-0.24;87.00;103367.31;5038128;28;20046;-68
2022/01/21 06:52:29;;;;;;;14.57;2.70;;;;;;;-0.21;87.09;103366.59;5034214;28;20558;-69
2022/01/21 06:54:58;;;;;;;12.20;2.67;;;;;;;-0.18;87.09;103371.94;5047429;28;20515;-68
2022/01/21 06:57:27;;;;;;;11.57;2.35;;;;;;;-0.15;87.09;103366.91;5047067;28;20538;-69
2022/01/21 06:59:55;;;;;;;11.68;2.50;;;;;;;-0.15;87.04;103366.91;5048776;28;20042;-69
2022/01/21 07:02:23;;;;;;;11.68;3.13;;;;;;;-0.15;87.03;103359.13;5047101;28;20045;-68
2022/01/21 07:04:50;;;;;;;11.80;2.25;;;;;;;-0.16;87.13;103360.84;5043748;28;20057;-69
2022/01/21 07:07:20;;;;;;;9.90;2.30;;;;;;;-0.17;87.26;103358.19;5042247;28;20093;-68
2022/01/21 07:09:48;;;;;;;6.22;2.40;;;;;;;-0.17;87.06;103353.00;5025856;28;20054;-68
2022/01/21 07:12:15;;;;;;;8.43;2.20;;;;;;;-0.16;87.08;103370.34;5021743;28;20054;-68
2022/01/21 07:14:42;;;;;;;10.77;2.60;;;;;;;-0.16;87.39;103367.75;5023048;28;20427;-70
2022/01/21 07:17:10;;;;;;;10.45;3.08;;;;;;;-0.13;87.44;103367.91;5033000;28;20489;-70
2022/01/21 07:19:37;;;;;;;11.68;3.10;;;;;;;-0.14;87.33;103373.88;5033250;28;20046;-72
2022/01/21 07:22:05;;;;;;;11.75;2.30;;;;;;;-0.16;87.10;103370.34;5034420;28;20045;-69
2022/01/21 07:24:33;;;;;;;11.73;3.15;;;;;;;-0.16;87.33;103381.59;5031074;28;20041;-68
2022/01/21 07:27:00;;;;;;;7.38;3.20;;;;;;;-0.17;87.24;103387.59;5028387;28;20049;-68
2022/01/21 07:29:28;;;;;;;12.63;3.08;;;;;;;-0.19;87.25;103389.19;5031162;28;20116;-69
2022/01/21 07:31:55;;;;;;;16.13;3.80;;;;;;;-0.22;87.15;103388.13;5028787;28;20042;-68
2022/01/21 07:34:25;;;;;;;12.27;3.30;;;;;;;-0.24;87.18;103388.06;5013531;28;20493;-68
2022/01/21 07:36:55;;;;;;;6.18;2.55;;;;;;;-0.25;87.44;103390.56;5030517;28;20057;-67
2022/01/21 07:39:22;;;;;;;10.52;2.53;;;;;;;-0.24;87.43;103392.34;5019676;28;20049;-70
2022/01/21 07:41:50;;;;;;;7.53;2.38;;;;;;;-0.22;87.23;103390.72;5028187;28;20045;-67
2022/01/21 07:44:18;;;;;;;8.00;2.83;;;;;;;-0.18;87.29;103392.69;5021882;28;20513;-70
2022/01/21 07:46:47;;;;;;;9.93;3.10;;;;;;;-0.14;87.19;103392.03;5027015;28;20042;-70
2022/01/21 07:49:16;;;;;;;8.27;3.00;;;;;;;-0.11;87.33;103392.22;5032175;28;20038;-70
2022/01/21 07:51:44;;;;;;;12.13;3.05;;;;;;;-0.08;87.29;103391.47;5040888;28;20038;-70
2022/01/21 07:54:11;;;;;;;9.88;3.08;;;;;;;-0.06;87.13;103390.78;5024437;28;20046;-70
2022/01/21 07:56:39;;;;;;;11.77;3.10;;;;;;;-0.01;87.03;103376.34;5017897;28;20046;-70
2022/01/21 07:59:13;;;;;;;13.43;3.33;;;;;;;0.06;87.00;103372.38;5031690;28;20124;-70
2022/01/21 08:01:43;;;;;;;13.75;3.22;;;;;;;0.14;86.98;103378.00;5026424;28;20842;-71
2022/01/21 08:04:11;;;;;;;10.10;2.78;;;;;;;0.21;86.98;103371.41;5032330;28;20101;-71
2022/01/21 08:06:41;;;;;;;9.45;2.70;;;;;;;0.30;86.80;103365.00;5025255;28;20034;-70
2022/01/21 08:09:11;;;;;;;10.85;2.35;;;;;;;0.40;86.64;103358.63;5017838;28;20131;-69
2022/01/21 08:11:45;;;;;;;9.88;2.58;;;;;;;0.46;86.57;103355.41;5020065;28;21226;-69
2022/01/21 08:14:13;;;;;;;7.80;2.58;;;;;;;0.45;86.76;103366.66;5025387;28;20037;-69
2022/01/21 08:16:44;;;;;;;13.38;3.10;;;;;;;0.44;86.32;103365.72;5024439;28;20054;-70
2022/01/21 08:19:14;;;;;;;11.13;2.60;;;;;;;0.48;86.30;103371.97;5038121;28;20103;-69
2022/01/21 08:21:42;;;;;;;7.00;2.67;;;;;;;0.56;86.30;103374.97;5024900;28;20041;-69
2022/01/21 08:24:09;;;;;;;26.38;3.53;;;;;;;0.68;86.18;103373.03;5018342;28;20046;-68
2022/01/21 08:26:38;;;;;;;9.63;3.17;;;;;;;0.79;86.02;103370.06;5014576;28;20042;-68
2022/01/21 08:29:07;;;;;;;11.43;2.70;;;;;;;0.85;85.76;103362.59;5027536;28;20052;-69
2022/01/21 08:31:34;;;;;;;11.43;2.97;;;;;;;0.88;85.73;103363.63;5029258;28;20034;-68
2022/01/21 08:34:02;;;;;;;13.73;3.35;;;;;;;0.89;85.80;103368.00;5026591;28;20042;-68
2022/01/21 08:36:29;;;;;;;12.27;3.08;;;;;;;0.87;85.78;103369.63;5010797;28;20035;-69
2022/01/21 08:38:57;;;;;;;10.60;2.88;;;;;;;0.87;85.67;103369.63;5022167;28;20128;-67
2022/01/21 08:41:25;;;;;;;16.02;3.90;;;;;;;0.86;85.62;103375.66;5023831;28;20042;-68
2022/01/21 08:43:53;;;;;;;10.18;2.88;;;;;;;0.90;85.65;103371.53;5037724;28;20040;-68
2022/01/21 08:46:26;;;;;;;13.30;3.42;;;;;;;1.02;85.56;103373.81;5020106;28;20053;-66
2022/01/21 08:48:56;;;;;;;11.88;3.47;;;;;;;1.16;85.36;103370.22;5022153;28;20076;-67
2022/01/21 08:51:28;;;;;;;10.63;3.28;;;;;;;1.34;85.11;103377.13;5018615;28;20809;-68
2022/01/21 08:53:55;;;;;;;12.43;3.60;;;;;;;1.42;84.91;103372.31;5013835;28;20136;-67
2022/01/21 08:56:22;;;;;;;13.00;2.90;;;;;;;1.48;84.86;103364.78;5013186;28;20138;-67
2022/01/21 08:58:49;;;;;;;5.47;2.40;;;;;;;1.54;84.64;103357.28;5011316;28;20034;-68
2022/01/21 09:01:17;;;;;;;11.70;2.55;;;;;;;1.52;84.57;103351.13;5022443;28;20041;-69
2022/01/21 09:03:45;;;;;;;9.85;2.80;;;;;;;1.56;84.51;103355.63;5030082;28;20728;-67
2022/01/21 09:06:16;;;;;;;8.25;2.80;;;;;;;1.60;84.46;103360.19;5039055;28;20034;-70
2022/01/21 09:08:46;;;;;;;11.32;2.75;;;;;;;1.67;84.50;103354.44;5029293;28;20045;-71
2022/01/21 09:11:14;;;;;;;12.63;3.17;;;;;;;1.69;84.36;103358.00;5028812;28;20085;-70
2022/01/21 09:13:42;;;;;;;14.75;3.17;;;;;;;1.76;84.14;103361.78;5023330;28;20042;-69
2022/01/21 09:16:10;;;;;;;16.65;2.90;;;;;;;1.88;83.76;103366.66;5030811;28;20065;-70
2022/01/21 09:18:51;;;;;;;11.35;3.17;;;;;;;2.00;83.42;103366.31;5016906;28;20109;-68
2022/01/21 09:21:33;;;;;;;13.13;2.78;;;;;;;2.10;83.10;103384.16;5017364;28;20045;-70
2022/01/21 09:24:04;;;;;;;9.65;2.47;;;;;;;2.13;83.31;103381.69;5025707;28;20485;-72
2022/01/21 09:26:31;;;;;;;7.30;3.05;;;;;;;2.22;82.95;103378.63;5019321;28;20042;-68
2022/01/21 09:29:03;;;;;;;7.82;2.67;;;;;;;2.30;82.70;103382.47;5013037;28;20160;-71
2022/01/21 09:31:33;;;;;;;12.30;3.15;;;;;;;2.39;82.49;103381.97;5015519;28;20046;-67
2022/01/21 09:34:27;;;;;;;12.27;3.25;;;;;;;2.47;82.37;103388.41;5023583;28;20051;-67
2022/01/21 09:36:57;;;;;;;13.68;3.45;;;;;;;2.54;81.90;103393.88;5020168;28;20054;-69
2022/01/21 09:39:28;;;;;;;25.70;5.80;;;;;;;2.55;82.13;103396.56;5023430;28;20042;-67
2022/01/21 09:42:01;;;;;;;7.30;2.95;;;;;;;2.58;81.65;103394.09;5031096;28;20145;-67
2022/01/21 09:44:32;;;;;;;9.13;2.92;;;;;;;2.64;81.47;103396.97;5024934;28;20043;-68
2022/01/21 09:47:04;;;;;;;10.38;2.78;;;;;;;2.73;81.45;103393.00;5025421;28;20046;-70
2022/01/21 09:49:34;;;;;;;9.20;3.10;;;;;;;2.84;81.42;103388.22;5019103;28;20038;-71
2022/01/21 09:52:13;;;;;;;11.00;2.80;;;;;;;3.04;81.05;103397.78;5024361;28;20042;-72
2022/01/21 09:54:45;;;;;;;9.98;2.67;;;;;;;3.20;80.49;103391.50;5015270;28;20056;-69
2022/01/21 09:57:22;;;;;;;11.77;2.78;;;;;;;3.26;80.52;103390.84;5011618;28;20129;-70
2022/01/21 09:59:52;;;;;;;8.70;3.03;;;;;;;3.34;80.65;103402.47;5017046;28;20133;-72
2022/01/21 10:02:28;;;;;;;10.38;3.83;;;;;;;3.36;80.38;103406.03;5018045;28;20041;-67
2022/01/21 10:04:59;;;;;;;13.95;3.72;;;;;;;3.34;80.40;103407.69;5017499;28;20070;-70
2022/01/21 10:07:29;;;;;;;11.43;3.50;;;;;;;3.35;80.48;103400.78;5010608;28;20039;-66
2022/01/21 10:09:59;;;;;;;14.25;3.45;;;;;;;3.35;80.73;103400.78;5013538;28;20185;-67
2022/01/21 10:12:26;;;;;;;10.45;2.60;;;;;;;3.38;80.63;103404.41;5025503;28;20057;-66
2022/01/21 10:14:54;;;;;;;12.88;3.40;;;;;;;3.44;80.38;103413.28;5011957;28;20069;-67
2022/01/21 10:18:04;;;;;;;15.05;3.45;;;;;;;3.50;80.50;103410.94;5028283;28;20057;-67
2022/01/21 10:21:04;;;;;;;10.27;2.70;;;;;;;3.63;79.97;103414.94;5030399;28;20034;-67
2022/01/21 10:23:36;;;;;;;11.00;3.00;;;;;;;3.76;79.53;103422.41;5020375;28;20065;-72
2022/01/21 10:26:16;;;;;;;8.07;2.80;;;;;;;3.85;79.53;103416.66;5014552;28;20046;-72
2022/01/21 10:28:53;;;;;;;8.63;2.72;;;;;;;3.92;79.23;103418.66;5011161;28;20053;-69
2022/01/21 10:31:20;;;;;;;15.75;2.95;;;;;;;3.87;78.98;103421.09;5019501;28;20030;-68
2022/01/21 10:33:52;;;;;;;9.65;2.60;;;;;;;3.82;78.91;103414.81;5023844;28;20034;-71
2022/01/21 10:36:26;;;;;;;12.73;3.00;;;;;;;3.94;78.75;103419.63;5029402;28;20042;-69
2022/01/21 10:39:05;;;;;;;11.05;2.83;;;;;;;4.06;78.46;103410.47;5034979;28;20586;-67
2022/01/21 10:41:36;;;;;;;9.88;2.95;;;;;;;4.07;78.50;103415.75;5017340;28;20149;-69
2022/01/21 10:44:12;;;;;;;11.85;2.65;;;;;;;4.07;78.68;103410.53;5027615;28;20050;-70
2022/01/21 10:46:46;;;;;;;9.65;2.95;;;;;;;4.09;78.34;103411.47;5036430;28;20057;-71
2022/01/21 10:49:17;;;;;;;10.93;2.00;;;;;;;4.12;78.08;103406.38;5032843;28;20073;-70
2022/01/21 10:51:52;;;;;;;9.70;2.53;;;;;;;4.11;78.16;103402.00;5018559;28;20050;-71
2022/01/21 10:54:26;;;;;;;11.48;2.35;;;;;;;4.16;78.17;103408.28;5014303;28;20027;-70
2022/01/21 10:57:17;;;;;;;12.20;3.00;;;;;;;4.34;77.97;103400.22;5013382;28;20057;-70
2022/01/21 11:00:00;;;;;;;9.43;2.47;;;;;;;4.49;77.31;103386.81;5013957;28;20058;-69
2022/01/21 11:02:37;;;;;;;8.50;2.42;;;;;;;4.66;77.13;103379.59;5012241;28;20042;-69
2022/01/21 11:05:17;;;;;;;7.88;2.33;;;;;;;4.73;77.11;103379.81;5023017;28;20128;-69
2022/01/21 11:08:06;;;;;;;10.23;2.17;;;;;;;4.88;76.82;103367.28;5014437;28;20895;-66
2022/01/21 11:10:36;;;;;;;7.75;2.17;;;;;;;4.97;76.79;103364.97;5029765;28;20074;-66
2022/01/21 11:13:20;;;;;;;9.30;2.85;;;;;;;5.05;77.05;103367.84;5015141;28;20042;-72
2022/01/21 11:15:55;;;;;;;9.57;2.58;;;;;;;5.16;76.80;103357.72;5024300;28;20508;-67
2022/01/21 11:18:50;;;;;;;11.00;2.50;;;;;;;5.44;75.88;103367.34;5035957;28;20042;-68
2022/01/21 11:21:19;;;;;;;7.85;2.15;;;;;;;5.60;76.05;103368.72;5021688;28;20445;-71
2022/01/21 11:23:46;;;;;;;11.70;2.17;;;;;;;5.59;75.69;103374.78;5012314;28;20043;-70
2022/01/21 11:26:16;;;;;;;10.88;2.03;;;;;;;5.54;76.30;103375.47;5026432;28;20042;-71
2022/01/21 11:28:53;;;;;;;12.77;1.98;;;;;;;5.55;75.58;103364.19;5012023;28;20524;-71
2022/01/21 11:31:26;;;;;;;9.88;1.98;;;;;;;5.56;75.26;103356.38;5025826;28;20129;-71
2022/01/21 11:34:12;;;;;;;15.75;2.20;;;;;;;5.55;75.41;103357.19;5026828;28;20062;-67
2022/01/21 11:36:43;;;;;;;17.83;2.20;;;;;;;5.57;75.29;103358.16;5010711;28;20030;-69
2022/01/21 11:39:11;;;;;;;11.38;1.98;;;;;;;5.58;75.26;103367.78;5011880;28;20047;-67
2022/01/21 11:41:42;;;;;;;12.00;2.53;;;;;;;5.54;75.77;103363.31;5032515;28;20030;-67
2022/01/21 11:44:12;;;;;;;16.63;2.20;;;;;;;5.51;75.85;103364.91;5024248;28;20856;-70
2022/01/21 11:46:47;;;;;;;11.68;1.90;;;;;;;5.46;75.98;103364.78;5031605;28;20484;-71
2022/01/21 11:49:20;;;;;;;8.90;1.90;;;;;;;5.51;76.37;103367.53;5013380;28;20159;-70
2022/01/21 11:51:48;;;;;;;15.48;2.72;;;;;;;5.53;76.22;103360.63;5020719;28;20101;-71
2022/01/21 11:54:24;;;;;;;10.52;1.80;;;;;;;5.53;76.58;103364.16;5022337;28;20082;-71
2022/01/21 11:57:02;;;;;;;7.65;1.80;;;;;;;5.53;76.24;103356.28;5026538;28;20094;-68
2022/01/21 12:02:25;;;;;;;11.65;2.95;;;;;;;5.63;76.43;103349.59;5019837;28;20571;-69
2022/01/21 12:05:00;;;;;;;11.85;2.30;;;;;;;5.70;76.46;103345.44;5023049;28;20046;-71
2022/01/21 12:07:34;;;;;;;7.25;1.80;;;;;;;5.83;75.93;103341.44;5030135;28;20129;-67
2022/01/21 12:10:26;;;;;;;8.52;2.30;;;;;;;5.91;76.03;103334.69;5020842;28;20508;-67
2022/01/21 12:15:40;;;;;;;13.18;1.73;;;;;;;5.95;75.90;103331.34;5021096;28;20038;-67
2022/01/21 12:19:09;;;;;;;13.80;2.08;;;;;;;5.88;76.06;103326.78;5021158;28;20483;-68
2022/01/21 12:21:41;;;;;;;13.90;2.28;;;;;;;5.80;76.53;103331.78;5020797;28;20969;-67
2022/01/21 12:24:10;;;;;;;8.43;2.28;;;;;;;5.77;76.70;103333.44;5022519;28;20042;-67
2022/01/21 12:26:58;;;;;;;12.15;1.95;;;;;;;5.81;76.79;103330.94;5006147;28;20092;-68
2022/01/21 12:29:28;;;;;;;9.95;2.00;;;;;;;5.79;77.11;103330.00;5024992;28;20085;-67
2022/01/21 12:32:07;;;;;;;10.43;2.28;;;;;;;5.77;77.29;103341.28;5020687;28;20580;-69